createdAt,value
2022-12-03T00:01:16.079Z,16.55
2022-12-03T00:03:43.539Z,19.17
2022-12-03T00:06:10.456Z,17.40
2022-12-03T00:08:37.326Z,18.92
2022-12-03T00:11:04.597Z,17.17
2022-12-03T00:13:31.807Z,18.25
2022-12-03T00:15:59.118Z,17.08
2022-12-03T00:18:26.319Z,20.27
2022-12-03T00:20:53.263Z,18.98
2022-12-03T00:23:20.238Z,22.00
2022-12-03T00:25:47.847Z,25.02
2022-12-03T00:28:14.831Z,22.60
2022-12-03T00:30:42.453Z,19.05
2022-12-03T00:33:09.930Z,21.50
2022-12-03T00:35:37.424Z,20.85
2022-12-03T00:38:04.515Z,25.23
2022-12-03T00:40:31.416Z,24.55
2022-12-03T00:42:59.289Z,23.40
2022-12-03T00:45:30.077Z,22.98
2022-12-03T00:47:57.435Z,21.77
2022-12-03T00:50:24.641Z,19.85
2022-12-03T00:52:51.868Z,22.25
2022-12-03T00:55:19.046Z,19.05
2022-12-03T00:57:45.899Z,18.15
2022-12-03T01:00:13.489Z,20.30
2022-12-03T01:02:40.327Z,18.67
2022-12-03T01:05:07.689Z,20.27
2022-12-03T01:07:34.872Z,17.75
2022-12-03T01:10:04.106Z,20.33
2022-12-03T01:12:30.868Z,18.63
2022-12-03T01:14:57.644Z,19.40
2022-12-03T01:17:24.851Z,20.67
2022-12-03T01:19:52.733Z,21.58
2022-12-03T01:22:19.952Z,19.45
2022-12-03T01:24:47.115Z,16.90
2022-12-03T01:27:14.383Z,19.73
2022-12-03T01:29:41.255Z,18.63
2022-12-03T01:32:18.201Z,21.25
2022-12-03T01:34:47.611Z,17.70
2022-12-03T01:37:15.069Z,19.48
2022-12-03T01:39:42.931Z,16.27
2022-12-03T01:42:15.381Z,16.10
2022-12-03T01:44:43.233Z,17.02
2022-12-03T01:47:18.666Z,16.48
2022-12-03T01:49:53.925Z,18.02
2022-12-03T01:52:24.580Z,16.55
2022-12-03T01:54:54.896Z,17.58
2022-12-03T01:57:43.587Z,17.33
2022-12-03T02:00:15.608Z,12.32
2022-12-03T02:02:42.461Z,14.50
2022-12-03T02:05:17.318Z,13.13
2022-12-03T02:07:44.648Z,15.27
2022-12-03T02:10:14.315Z,16.33
2022-12-03T02:12:47.534Z,14.50
2022-12-03T02:15:14.595Z,14.02
2022-12-03T02:17:42.417Z,13.93
2022-12-03T02:20:10.735Z,13.55
2022-12-03T02:22:54.296Z,12.63
2022-12-03T02:25:28.044Z,15.88
2022-12-03T02:27:56.102Z,12.70
2022-12-03T02:30:24.979Z,14.43
2022-12-03T02:32:53.228Z,15.63
2022-12-03T02:35:25.844Z,13.55
2022-12-03T02:38:07.616Z,16.17
2022-12-03T02:40:34.605Z,12.68
2022-12-03T02:43:03.427Z,15.63
2022-12-03T02:45:34.702Z,16.65
2022-12-03T02:48:06.724Z,15.40
2022-12-03T02:50:40.664Z,16.17
2022-12-03T02:53:13.246Z,12.80
2022-12-03T02:55:41.456Z,14.68
2022-12-03T02:58:09.369Z,15.30
2022-12-03T03:00:37.228Z,16.10
2022-12-03T03:03:06.388Z,16.67
2022-12-03T03:05:34.909Z,16.50
2022-12-03T03:08:02.815Z,16.55
2022-12-03T03:10:40.600Z,17.48
2022-12-03T03:13:11.536Z,15.77
2022-12-03T03:15:40.566Z,14.82
2022-12-03T03:18:08.338Z,17.55
2022-12-03T03:20:36.122Z,16.38
2022-12-03T03:23:23.423Z,16.42
2022-12-03T03:26:05.600Z,17.55
2022-12-03T03:28:34.775Z,17.30
2022-12-03T03:31:04.260Z,15.40
2022-12-03T03:33:31.821Z,15.20
2022-12-03T03:36:00.515Z,15.00
2022-12-03T03:38:28.433Z,15.98
2022-12-03T03:40:58.057Z,15.85
2022-12-03T03:43:25.558Z,17.55
2022-12-03T03:45:54.176Z,14.65
2022-12-03T03:48:22.671Z,15.85
2022-12-03T03:50:51.273Z,18.15
2022-12-03T03:53:19.231Z,15.07
2022-12-03T03:55:46.424Z,16.83
2022-12-03T03:58:13.649Z,17.33
2022-12-03T04:00:45.599Z,17.15
2022-12-03T04:03:13.525Z,16.98
2022-12-03T04:05:40.848Z,13.95
2022-12-03T04:08:07.787Z,16.25
2022-12-03T04:10:53.072Z,17.75
2022-12-03T04:13:19.890Z,17.25
2022-12-03T04:15:46.654Z,19.10
2022-12-03T04:18:32.451Z,17.10
2022-12-03T04:21:19.296Z,16.17
2022-12-03T04:23:46.101Z,20.02
2022-12-03T04:26:31.472Z,16.27
2022-12-03T04:28:58.376Z,15.88
2022-12-03T04:31:43.691Z,20.00
2022-12-03T04:34:29.930Z,18.55
2022-12-03T04:36:56.909Z,18.48
2022-12-03T04:39:24.139Z,22.95
2022-12-03T04:41:50.945Z,19.95
2022-12-03T04:44:36.449Z,20.17
2022-12-03T04:47:14.377Z,18.63
2022-12-03T04:49:54.261Z,20.27
2022-12-03T04:52:21.843Z,18.05
2022-12-03T04:54:48.837Z,21.45
2022-12-03T04:57:16.132Z,22.20
2022-12-03T04:59:43.409Z,21.63
2022-12-03T05:02:10.639Z,20.70
2022-12-03T05:04:37.508Z,21.17
2022-12-03T05:07:04.325Z,21.05
2022-12-03T05:09:31.066Z,21.08
2022-12-03T05:11:57.865Z,17.25
2022-12-03T05:14:24.774Z,18.73
2022-12-03T05:16:51.791Z,20.77
2022-12-03T05:19:18.665Z,20.58
2022-12-03T05:21:45.845Z,21.15
2022-12-03T05:24:12.647Z,19.25
2022-12-03T05:26:39.817Z,17.90
2022-12-03T05:29:06.672Z,20.42
2022-12-03T05:31:33.390Z,20.63
2022-12-03T05:34:00.533Z,17.90
2022-12-03T05:36:27.908Z,20.38
2022-12-03T05:38:55.217Z,18.88
2022-12-03T05:41:40.585Z,19.65
2022-12-03T05:44:07.404Z,18.23
2022-12-03T05:46:34.328Z,18.45
2022-12-03T05:49:01.269Z,22.13
2022-12-03T05:51:28.218Z,17.58
2022-12-03T05:53:55.437Z,18.98
2022-12-03T05:56:22.701Z,19.63
2022-12-03T05:58:49.949Z,20.20
2022-12-03T06:01:16.790Z,18.70
2022-12-03T06:03:43.872Z,19.73
2022-12-03T06:06:10.821Z,18.80
2022-12-03T06:08:37.603Z,18.27
2022-12-03T06:11:04.445Z,20.58
2022-12-03T06:13:31.248Z,19.95
2022-12-03T06:15:58.424Z,19.50
2022-12-03T06:18:25.332Z,20.55
2022-12-03T06:20:52.129Z,20.90
2022-12-03T06:23:18.882Z,24.27
2022-12-03T06:25:46.010Z,22.15
2022-12-03T06:28:15.870Z,23.05
2022-12-03T06:30:43.292Z,22.00
2022-12-03T06:33:10.202Z,28.23
2022-12-03T06:35:36.964Z,23.45
2022-12-03T06:38:04.268Z,25.60
2022-12-03T06:40:31.500Z,28.27
2022-12-03T06:42:58.683Z,21.00
2022-12-03T06:45:25.910Z,19.88
2022-12-03T06:47:52.706Z,20.58
2022-12-03T06:50:19.987Z,20.48
2022-12-03T06:52:46.752Z,25.27
2022-12-03T06:55:13.611Z,19.80
2022-12-03T06:57:40.491Z,23.15
2022-12-03T07:00:09.008Z,20.52
2022-12-03T07:02:36.091Z,24.42
2022-12-03T07:05:04.261Z,20.42
2022-12-03T07:07:31.483Z,26.02
2022-12-03T07:09:58.839Z,27.52
2022-12-03T07:12:25.592Z,25.70
2022-12-03T07:14:52.657Z,26.05
2022-12-03T07:17:19.589Z,27.02
2022-12-03T07:19:46.464Z,20.92
2022-12-03T07:22:13.542Z,20.15
2022-12-03T07:24:40.367Z,19.85
2022-12-03T07:27:07.839Z,19.10
2022-12-03T07:29:34.658Z,21.35
2022-12-03T07:32:01.481Z,20.00
2022-12-03T07:34:28.502Z,19.35
2022-12-03T07:36:55.753Z,19.65
2022-12-03T07:39:23.175Z,19.42
2022-12-03T07:41:50.439Z,24.00
2022-12-03T07:44:17.738Z,28.27
2022-12-03T07:46:44.642Z,20.48
2022-12-03T07:49:17.386Z,20.60
2022-12-03T07:51:53.572Z,25.90
2022-12-03T07:54:21.618Z,24.73
2022-12-03T07:56:48.543Z,21.85
2022-12-03T07:59:16.242Z,18.08
2022-12-03T08:01:43.133Z,21.08
2022-12-03T08:04:14.145Z,22.80
2022-12-03T08:06:41.493Z,16.88
2022-12-03T08:09:11.983Z,22.30
2022-12-03T08:11:42.201Z,21.45
2022-12-03T08:14:14.527Z,18.48
2022-12-03T08:16:43.373Z,17.13
2022-12-03T08:19:15.130Z,20.92
2022-12-03T08:21:42.782Z,18.58
2022-12-03T08:24:21.360Z,22.35
2022-12-03T08:26:49.096Z,23.50
2022-12-03T08:29:18.958Z,19.98
2022-12-03T08:31:57.266Z,23.08
2022-12-03T08:34:27.973Z,22.55
2022-12-03T08:37:16.404Z,24.02
2022-12-03T08:39:48.653Z,24.67
2022-12-03T08:42:44.754Z,20.58
2022-12-03T08:45:31.936Z,23.67
2022-12-03T08:48:02.415Z,23.38
2022-12-03T08:50:32.967Z,23.00
2022-12-03T08:53:14.005Z,20.65
2022-12-03T08:55:52.999Z,19.77
2022-12-03T08:58:42.413Z,23.05
2022-12-03T09:01:12.173Z,23.58
2022-12-03T09:03:48.971Z,20.42
2022-12-03T09:06:15.976Z,20.20
2022-12-03T09:08:42.906Z,22.23
2022-12-03T09:11:10.121Z,19.50
2022-12-03T09:13:36.865Z,25.38
2022-12-03T09:16:03.979Z,19.10
2022-12-03T09:18:30.953Z,17.58
2022-12-03T09:20:57.861Z,21.60
2022-12-03T09:23:24.721Z,17.90
2022-12-03T09:25:51.987Z,21.10
2022-12-03T09:28:18.929Z,21.75
2022-12-03T09:30:45.753Z,21.10
2022-12-03T09:33:12.707Z,22.63
2022-12-03T09:35:39.974Z,24.65
2022-12-03T09:38:06.860Z,22.70
2022-12-03T09:40:34.683Z,26.30
2022-12-03T09:43:01.729Z,25.33
2022-12-03T09:45:28.751Z,33.22
2022-12-03T09:47:55.797Z,33.28
2022-12-03T09:50:26.568Z,30.45
2022-12-03T09:52:55.141Z,31.58
2022-12-03T09:55:25.133Z,27.23
2022-12-03T09:57:56.950Z,25.52
2022-12-03T10:00:29.580Z,28.52
2022-12-03T10:02:59.332Z,26.67
2022-12-03T10:05:26.427Z,29.30
2022-12-03T10:07:53.566Z,29.10
2022-12-03T10:10:23.600Z,32.03
2022-12-03T10:12:51.487Z,34.05
2022-12-03T10:15:21.855Z,33.47
2022-12-03T10:17:51.191Z,31.95
2022-12-03T10:20:21.451Z,27.65
2022-12-03T10:22:48.894Z,34.60
2022-12-03T10:25:21.910Z,34.67
2022-12-03T10:28:05.414Z,31.10
2022-12-03T10:30:32.939Z,34.75
2022-12-03T10:33:03.005Z,33.47
2022-12-03T10:35:41.277Z,36.55
2022-12-03T10:38:28.463Z,32.15
2022-12-03T10:40:55.636Z,29.20
2022-12-03T10:43:26.971Z,34.05
2022-12-03T10:46:03.321Z,31.48
2022-12-03T10:48:30.923Z,34.70
2022-12-03T10:51:04.868Z,34.28
2022-12-03T10:53:34.712Z,29.13
2022-12-03T10:56:04.839Z,32.45
2022-12-03T10:58:36.094Z,30.75
2022-12-03T11:01:06.930Z,31.75
2022-12-03T11:03:35.984Z,33.05
2022-12-03T11:06:03.549Z,33.70
2022-12-03T11:08:35.782Z,39.55
2022-12-03T11:11:07.113Z,33.17
2022-12-03T11:13:34.537Z,31.55
2022-12-03T11:16:03.251Z,31.30
2022-12-03T11:18:39.523Z,33.50
2022-12-03T11:21:12.819Z,34.42
2022-12-03T11:23:46.096Z,35.38
2022-12-03T11:26:18.839Z,32.63
2022-12-03T11:28:46.221Z,34.83
2022-12-03T11:31:41.323Z,35.20
2022-12-03T11:34:23.051Z,32.00
2022-12-03T11:37:12.524Z,36.88
2022-12-03T11:39:45.557Z,34.97
2022-12-03T11:42:27.493Z,31.92
2022-12-03T11:45:06.274Z,38.92
2022-12-03T11:47:45.848Z,36.17
2022-12-03T11:50:37.646Z,41.08
2022-12-03T11:53:25.751Z,34.50
2022-12-03T11:56:11.034Z,43.03
2022-12-03T11:58:42.592Z,33.35
2022-12-03T12:01:09.828Z,38.95
2022-12-03T12:03:50.385Z,37.80
2022-12-03T12:06:20.529Z,34.72
2022-12-03T12:08:59.168Z,36.97
2022-12-03T12:11:29.425Z,32.45
2022-12-03T12:14:20.425Z,35.25
2022-12-03T12:16:52.560Z,39.92
2022-12-03T12:19:32.790Z,44.75
2022-12-03T12:22:27.764Z,35.22
2022-12-03T12:24:57.886Z,37.00
2022-12-03T12:27:47.204Z,31.77
2022-12-03T12:30:21.986Z,34.10
2022-12-03T12:33:16.635Z,32.45
2022-12-03T12:35:44.081Z,37.25
2022-12-03T12:38:16.655Z,44.78
2022-12-03T12:40:46.960Z,40.28
2022-12-03T12:43:24.379Z,37.58
2022-12-03T12:45:56.880Z,36.97
2022-12-03T12:48:40.046Z,36.58
2022-12-03T12:51:15.309Z,35.30
2022-12-03T12:53:45.470Z,34.55
2022-12-03T12:56:32.272Z,40.70
2022-12-03T12:59:09.559Z,35.33
2022-12-03T13:01:38.296Z,30.85
2022-12-03T13:04:20.559Z,31.23
2022-12-03T13:06:49.362Z,32.60
2022-12-03T13:09:27.315Z,37.47
2022-12-03T13:12:07.622Z,44.10
2022-12-03T13:14:37.122Z,32.22
2022-12-03T13:17:24.691Z,34.63
2022-12-03T13:20:01.967Z,35.20
2022-12-03T13:22:35.767Z,38.83
2022-12-03T13:25:50.610Z,34.80
2022-12-03T13:28:15.735Z,32.15
2022-12-03T13:30:43.165Z,41.53
2022-12-03T13:33:26.618Z,37.75
2022-12-03T13:35:55.626Z,38.03
2022-12-03T13:38:23.775Z,37.95
2022-12-03T13:41:01.898Z,30.67
2022-12-03T13:43:33.253Z,33.50
2022-12-03T13:46:00.725Z,39.80
2022-12-03T13:48:35.973Z,31.40
2022-12-03T13:51:26.829Z,43.80
2022-12-03T13:54:01.969Z,34.80
2022-12-03T13:56:33.367Z,37.28
2022-12-03T13:59:01.852Z,67.63
2022-12-03T14:01:30.340Z,43.65
2022-12-03T14:03:58.107Z,54.22
2022-12-03T14:06:25.783Z,56.85
2022-12-03T14:08:52.953Z,71.47
2022-12-03T14:11:38.541Z,58.17
2022-12-03T14:14:05.907Z,54.13
2022-12-03T14:16:33.331Z,55.90
2022-12-03T14:19:00.614Z,44.33
2022-12-03T14:21:30.632Z,55.03
2022-12-03T14:23:57.742Z,43.40
2022-12-03T14:26:25.459Z,54.55
2022-12-03T14:28:52.638Z,69.10
2022-12-03T14:31:22.477Z,58.53
2022-12-03T14:33:52.324Z,37.45
2022-12-03T14:36:20.077Z,35.20
2022-12-03T14:38:47.014Z,41.90
2022-12-03T14:41:34.497Z,40.13
2022-12-03T14:44:04.094Z,30.20
2022-12-03T14:46:31.366Z,33.42
2022-12-03T14:48:58.623Z,30.38
2022-12-03T14:51:25.882Z,47.10
2022-12-03T14:53:52.911Z,68.43
2022-12-03T14:56:20.231Z,50.55
2022-12-03T14:58:47.505Z,36.47
2022-12-03T15:01:15.402Z,32.13
2022-12-03T15:03:42.676Z,39.90
2022-12-03T15:06:09.951Z,44.40
2022-12-03T15:08:37.357Z,44.25
2022-12-03T15:11:04.504Z,31.42
2022-12-03T15:13:32.152Z,56.42
2022-12-03T15:16:00.313Z,42.92
2022-12-03T15:18:29.344Z,42.40
2022-12-03T15:20:56.962Z,36.08
2022-12-03T15:23:23.998Z,41.60
2022-12-03T15:25:51.567Z,44.70
2022-12-03T15:28:18.867Z,37.50
2022-12-03T15:30:46.235Z,40.53
2022-12-03T15:33:14.159Z,44.83
2022-12-03T15:35:42.957Z,56.03
2022-12-03T15:38:10.812Z,39.25
2022-12-03T15:40:38.671Z,35.05
2022-12-03T15:43:06.759Z,39.28
2022-12-03T15:45:42.112Z,39.25
2022-12-03T15:48:08.996Z,30.83
2022-12-03T15:50:40.154Z,27.55
2022-12-03T15:53:07.806Z,31.45
2022-12-03T15:55:34.710Z,34.13
2022-12-03T15:58:01.847Z,38.35
2022-12-03T16:00:29.542Z,29.30
2022-12-03T16:02:57.114Z,28.58
2022-12-03T16:05:26.761Z,27.80
2022-12-03T16:07:54.002Z,32.45
2022-12-03T16:10:21.643Z,25.33
2022-12-03T16:12:49.088Z,27.00
2022-12-03T16:15:16.260Z,26.65
2022-12-03T16:17:43.540Z,37.05
2022-12-03T16:20:11.817Z,30.30
2022-12-03T16:22:39.239Z,30.00
2022-12-03T16:25:07.202Z,37.75
2022-12-03T16:27:34.206Z,33.00
2022-12-03T16:30:01.848Z,47.00
2022-12-03T16:32:28.714Z,40.45
2022-12-03T16:34:56.218Z,43.15
2022-12-03T16:37:23.768Z,52.50
2022-12-03T16:39:53.636Z,48.50
2022-12-03T16:42:24.369Z,42.20
2022-12-03T16:45:03.913Z,38.65
2022-12-03T16:47:34.373Z,42.97
2022-12-03T16:50:03.402Z,42.72
2022-12-03T16:52:31.204Z,38.45
2022-12-03T16:54:58.638Z,44.05
2022-12-03T16:57:31.763Z,50.03
2022-12-03T17:00:00.854Z,49.75
2022-12-03T17:02:28.293Z,48.28
2022-12-03T17:04:55.841Z,40.35
2022-12-03T17:07:47.368Z,44.72
2022-12-03T17:10:15.420Z,41.22
2022-12-03T17:13:08.395Z,35.60
2022-12-03T17:15:30.698Z,39.42
2022-12-03T17:17:58.077Z,45.83
2022-12-03T17:20:25.298Z,46.67
2022-12-03T17:22:52.571Z,35.53
2022-12-03T17:25:19.893Z,44.28
2022-12-03T17:27:46.682Z,40.85
2022-12-03T17:30:14.190Z,38.90
2022-12-03T17:32:41.923Z,39.92
2022-12-03T17:35:09.964Z,41.97
2022-12-03T17:37:37.535Z,40.25
2022-12-03T17:40:06.624Z,36.90
2022-12-03T17:42:33.424Z,37.05
2022-12-03T17:45:00.321Z,35.60
2022-12-03T17:47:27.527Z,33.28
2022-12-03T17:49:54.438Z,35.95
2022-12-03T17:52:23.220Z,39.10
2022-12-03T17:55:10.109Z,34.92
2022-12-03T17:57:36.902Z,40.50
2022-12-03T18:00:04.456Z,37.88
2022-12-03T18:04:59.482Z,42.67
2022-12-03T18:07:26.406Z,44.45
2022-12-03T18:09:53.871Z,28.38
2022-12-03T18:12:20.993Z,27.73
2022-12-03T18:14:47.800Z,28.33
2022-12-03T18:17:14.688Z,27.60
2022-12-03T18:19:41.942Z,24.48
2022-12-03T18:22:09.516Z,52.97
2022-12-03T18:24:36.577Z,33.13
2022-12-03T18:27:03.542Z,39.35
2022-12-03T18:29:30.360Z,37.05
2022-12-03T18:31:57.734Z,32.10
2022-12-03T18:34:24.780Z,36.15
2022-12-03T18:36:51.702Z,37.47
2022-12-03T18:39:26.413Z,36.42
2022-12-03T18:41:54.036Z,35.40
2022-12-03T18:44:21.628Z,30.05
2022-12-03T18:46:55.945Z,29.00
2022-12-03T18:49:23.064Z,30.13
2022-12-03T18:51:54.519Z,31.40
2022-12-03T18:54:25.644Z,28.70
2022-12-03T18:56:52.507Z,28.50
2022-12-03T18:59:19.743Z,30.40
2022-12-03T19:01:47.111Z,32.38
2022-12-03T19:04:14.419Z,30.50
2022-12-03T19:06:41.255Z,23.45
2022-12-03T19:09:08.135Z,30.27
2022-12-03T19:11:35.033Z,33.05
2022-12-03T19:14:05.541Z,28.63
2022-12-03T19:16:32.519Z,30.30
2022-12-03T19:18:59.447Z,31.52
2022-12-03T19:21:29.491Z,28.25
2022-12-03T19:24:23.715Z,28.60
2022-12-03T19:27:01.922Z,28.95
2022-12-03T19:29:28.897Z,28.13
2022-12-03T19:31:55.816Z,27.73
2022-12-03T19:34:22.740Z,30.35
2022-12-03T19:36:49.509Z,30.60
2022-12-03T19:39:16.368Z,32.05
2022-12-03T19:41:44.708Z,32.42
2022-12-03T19:44:14.521Z,37.08
2022-12-03T19:46:42.468Z,34.95
2022-12-03T19:49:10.173Z,38.63
2022-12-03T19:51:37.401Z,35.85
2022-12-03T19:54:06.538Z,39.28
2022-12-03T19:56:33.825Z,38.53
2022-12-03T19:59:01.446Z,41.95
2022-12-03T20:01:32.199Z,36.75
2022-12-03T20:04:00.763Z,38.97
2022-12-03T20:06:30.596Z,37.95
2022-12-03T20:08:59.512Z,42.53
2022-12-03T20:11:32.189Z,43.63
2022-12-03T20:14:02.134Z,40.90
2022-12-03T20:16:30.204Z,43.78
2022-12-03T20:19:01.704Z,53.13
2022-12-03T20:21:31.087Z,46.25
2022-12-03T20:23:58.556Z,40.85
2022-12-03T20:26:26.585Z,45.35
2022-12-03T20:28:55.217Z,39.55
2022-12-03T20:31:24.389Z,40.63
2022-12-03T20:33:54.710Z,39.20
2022-12-03T20:36:22.902Z,38.47
2022-12-03T20:38:57.729Z,31.95
2022-12-03T20:41:25.365Z,29.80
2022-12-03T20:43:53.479Z,34.20
2022-12-03T20:46:21.747Z,34.65
2022-12-03T20:48:49.176Z,31.02
2022-12-03T20:51:19.466Z,32.47
2022-12-03T20:53:47.315Z,33.35
2022-12-03T20:56:23.781Z,31.98
2022-12-03T20:58:51.136Z,35.25
2022-12-03T21:01:21.158Z,31.67
2022-12-03T21:03:49.604Z,34.00
2022-12-03T21:06:17.349Z,30.70
2022-12-03T21:08:44.882Z,34.88
2022-12-03T21:11:18.227Z,32.05
2022-12-03T21:13:47.972Z,35.40
2022-12-03T21:16:17.627Z,35.47
2022-12-03T21:18:45.611Z,33.35
2022-12-03T21:21:14.787Z,37.38
2022-12-03T21:23:42.694Z,37.22
2022-12-03T21:26:15.954Z,32.60
2022-12-03T21:28:44.352Z,32.13
2022-12-03T21:31:17.024Z,33.22
2022-12-03T21:33:44.590Z,35.33
2022-12-03T21:36:14.191Z,37.95
2022-12-03T21:38:41.942Z,33.50
2022-12-03T21:41:09.014Z,31.42
2022-12-03T21:43:36.292Z,30.73
2022-12-03T21:47:11.821Z,31.48
2022-12-03T21:49:00.326Z,30.92
2022-12-03T21:51:27.553Z,35.83
2022-12-03T21:53:54.559Z,36.00
2022-12-03T21:56:21.874Z,33.63
2022-12-03T21:58:51.741Z,37.88
2022-12-03T22:01:21.537Z,29.30
2022-12-03T22:03:48.913Z,25.83
2022-12-03T22:06:19.435Z,27.02
2022-12-03T22:08:46.926Z,27.80
2022-12-03T22:11:20.018Z,28.63
2022-12-03T22:13:47.169Z,28.42
2022-12-03T22:16:17.091Z,28.67
2022-12-03T22:18:44.049Z,29.30
2022-12-03T22:21:14.410Z,25.55
2022-12-03T22:23:41.394Z,29.30
2022-12-03T22:26:13.660Z,26.10
2022-12-03T22:28:46.938Z,25.17
2022-12-03T22:31:14.593Z,25.88
2022-12-03T22:33:42.152Z,25.90
2022-12-03T22:36:19.637Z,28.13
2022-12-03T22:38:48.007Z,26.30
2022-12-03T22:41:15.983Z,28.35
2022-12-03T22:43:43.016Z,27.33
2022-12-03T22:46:12.763Z,27.98
2022-12-03T22:48:41.467Z,27.52
2022-12-03T22:51:17.565Z,24.95
2022-12-03T22:53:44.616Z,24.10
2022-12-03T22:56:11.834Z,27.73
2022-12-03T22:58:39.840Z,23.98
2022-12-03T23:01:07.600Z,22.17
2022-12-03T23:03:34.604Z,19.73
2022-12-03T23:06:01.536Z,25.85
2022-12-03T23:08:28.358Z,25.80
2022-12-03T23:10:55.133Z,25.10
2022-12-03T23:13:26.479Z,23.63
2022-12-03T23:15:53.408Z,25.65
2022-12-03T23:18:20.982Z,23.42
2022-12-03T23:20:50.960Z,24.08
2022-12-03T23:23:19.186Z,24.50
2022-12-03T23:26:10.471Z,25.50
2022-12-03T23:28:39.209Z,25.77
2022-12-03T23:31:14.027Z,25.65
2022-12-03T23:33:40.928Z,23.60
2022-12-03T23:36:08.183Z,24.65
2022-12-03T23:38:36.894Z,24.73
2022-12-03T23:41:05.446Z,21.73
2022-12-03T23:43:32.330Z,21.75
2022-12-03T23:46:14.185Z,24.48
2022-12-03T23:48:42.648Z,23.80
2022-12-03T23:51:14.990Z,25.15
2022-12-03T23:53:42.417Z,22.60
2022-12-03T23:56:12.112Z,21.98
2022-12-03T23:58:39.587Z,24.70
